sensor_id;sensor_type;location;lat;lon;timestamp;temperature;humidity
34099;DHT22;20374;49.474;10.944;2023-02-28T00:02:18;-2.90;99.90
34099;DHT22;20374;49.474;10.944;2023-02-28T00:04:44;-2.90;99.90
34099;DHT22;20374;49.474;10.944;2023-02-28T00:07:10;-2.90;99.90
34099;DHT22;20374;49.474;10.944;2023-02-28T00:09:36;-2.90;99.90
34099;DHT22;20374;49.474;10.944;2023-02-28T00:12:02;-3.00;99.90
34099;DHT22;20374;49.474;10.944;2023-02-28T00:14:36;-3.00;99.90
34099;DHT22;20374;49.474;10.944;2023-02-28T00:17:02;-3.00;99.90
34099;DHT22;20374;49.474;10.944;2023-02-28T00:19:28;-3.00;99.90
34099;DHT22;20374;49.474;10.944;2023-02-28T00:21:53;-3.10;99.90
34099;DHT22;20374;49.474;10.944;2023-02-28T00:24:19;-3.10;99.90
34099;DHT22;20374;49.474;10.944;2023-02-28T00:26:45;-3.10;99.90
34099;DHT22;20374;49.474;10.944;2023-02-28T00:29:12;-3.10;99.90
34099;DHT22;20374;49.474;10.944;2023-02-28T00:31:37;-3.20;99.90
34099;DHT22;20374;49.474;10.944;2023-02-28T00:34:03;-3.20;99.90
34099;DHT22;20374;49.474;10.944;2023-02-28T00:36:30;-3.30;99.90
34099;DHT22;20374;49.474;10.944;2023-02-28T00:38:56;-3.30;99.90
34099;DHT22;20374;49.474;10.944;2023-02-28T00:41:22;-3.30;99.90
34099;DHT22;20374;49.474;10.944;2023-02-28T00:43:48;-3.40;99.90
34099;DHT22;20374;49.474;10.944;2023-02-28T00:46:14;-3.40;99.90
34099;DHT22;20374;49.474;10.944;2023-02-28T00:48:40;-3.30;99.90
34099;DHT22;20374;49.474;10.944;2023-02-28T00:51:06;-3.30;99.90
34099;DHT22;20374;49.474;10.944;2023-02-28T00:53:31;-3.20;99.90
34099;DHT22;20374;49.474;10.944;2023-02-28T00:56:00;-3.20;99.90
34099;DHT22;20374;49.474;10.944;2023-02-28T00:58:26;-3.20;99.90
34099;DHT22;20374;49.474;10.944;2023-02-28T01:00:53;-3.20;99.90
34099;DHT22;20374;49.474;10.944;2023-02-28T01:03:20;-3.30;99.90
34099;DHT22;20374;49.474;10.944;2023-02-28T01:05:46;-3.20;99.90
34099;DHT22;20374;49.474;10.944;2023-02-28T01:08:13;-3.10;99.90
34099;DHT22;20374;49.474;10.944;2023-02-28T01:10:40;-3.00;99.90
34099;DHT22;20374;49.474;10.944;2023-02-28T01:13:07;-3.00;99.90
34099;DHT22;20374;49.474;10.944;2023-02-28T01:15:36;-3.00;99.90
34099;DHT22;20374;49.474;10.944;2023-02-28T01:18:04;-3.00;99.90
34099;DHT22;20374;49.474;10.944;2023-02-28T01:20:30;-3.00;99.90
34099;DHT22;20374;49.474;10.944;2023-02-28T01:22:57;-3.00;99.90
34099;DHT22;20374;49.474;10.944;2023-02-28T01:25:23;-3.00;99.90
34099;DHT22;20374;49.474;10.944;2023-02-28T01:27:49;-3.00;99.90
34099;DHT22;20374;49.474;10.944;2023-02-28T01:30:15;-3.00;99.90
34099;DHT22;20374;49.474;10.944;2023-02-28T01:32:41;-3.10;99.90
34099;DHT22;20374;49.474;10.944;2023-02-28T01:35:07;-3.10;99.90
34099;DHT22;20374;49.474;10.944;2023-02-28T01:37:33;-3.10;99.90
34099;DHT22;20374;49.474;10.944;2023-02-28T01:39:59;-3.10;99.90
34099;DHT22;20374;49.474;10.944;2023-02-28T01:42:25;-3.10;99.90
34099;DHT22;20374;49.474;10.944;2023-02-28T01:47:42;-3.20;99.90
34099;DHT22;20374;49.474;10.944;2023-02-28T01:50:21;-3.10;99.90
34099;DHT22;20374;49.474;10.944;2023-02-28T01:52:50;-3.10;99.90
34099;DHT22;20374;49.474;10.944;2023-02-28T01:55:18;-3.10;99.90
34099;DHT22;20374;49.474;10.944;2023-02-28T01:57:52;-3.00;99.90
34099;DHT22;20374;49.474;10.944;2023-02-28T02:00:23;-3.00;99.90
34099;DHT22;20374;49.474;10.944;2023-02-28T02:02:52;-3.10;99.90
34099;DHT22;20374;49.474;10.944;2023-02-28T02:05:22;-3.10;99.90
34099;DHT22;20374;49.474;10.944;2023-02-28T02:08:08;-3.10;99.90
34099;DHT22;20374;49.474;10.944;2023-02-28T02:13:12;-3.10;99.90
34099;DHT22;20374;49.474;10.944;2023-02-28T02:24:40;-3.20;99.90
34099;DHT22;20374;49.474;10.944;2023-02-28T02:40:33;-3.30;99.90
34099;DHT22;20374;49.474;10.944;2023-02-28T02:43:15;-3.40;99.90
34099;DHT22;20374;49.474;10.944;2023-02-28T02:45:54;-3.40;99.90
34099;DHT22;20374;49.474;10.944;2023-02-28T02:48:25;-3.40;99.90
34099;DHT22;20374;49.474;10.944;2023-02-28T02:50:55;-3.40;99.90
34099;DHT22;20374;49.474;10.944;2023-02-28T02:53:36;-3.40;99.90
34099;DHT22;20374;49.474;10.944;2023-02-28T02:56:05;-3.40;99.90
34099;DHT22;20374;49.474;10.944;2023-02-28T02:58:37;-3.30;99.90
34099;DHT22;20374;49.474;10.944;2023-02-28T03:01:12;-3.30;99.90
34099;DHT22;20374;49.474;10.944;2023-02-28T03:03:40;-3.30;99.90
34099;DHT22;20374;49.474;10.944;2023-02-28T03:06:06;-3.20;99.90
34099;DHT22;20374;49.474;10.944;2023-02-28T03:08:37;-3.20;99.90
34099;DHT22;20374;49.474;10.944;2023-02-28T03:11:12;-3.20;99.90
34099;DHT22;20374;49.474;10.944;2023-02-28T03:13:48;-3.30;99.90
34099;DHT22;20374;49.474;10.944;2023-02-28T03:19:37;-3.20;99.90
34099;DHT22;20374;49.474;10.944;2023-02-28T03:22:30;-3.10;99.90
34099;DHT22;20374;49.474;10.944;2023-02-28T03:30:45;-3.10;99.90
34099;DHT22;20374;49.474;10.944;2023-02-28T03:33:18;-3.10;99.90
34099;DHT22;20374;49.474;10.944;2023-02-28T03:35:52;-3.20;99.90
34099;DHT22;20374;49.474;10.944;2023-02-28T03:38:25;-3.20;99.90
34099;DHT22;20374;49.474;10.944;2023-02-28T03:43:57;-3.10;99.90
34099;DHT22;20374;49.474;10.944;2023-02-28T03:46:26;-3.10;99.90
34099;DHT22;20374;49.474;10.944;2023-02-28T03:49:25;-3.10;99.90
34099;DHT22;20374;49.474;10.944;2023-02-28T03:51:53;-3.10;99.90
34099;DHT22;20374;49.474;10.944;2023-02-28T03:54:29;-3.00;99.90
34099;DHT22;20374;49.474;10.944;2023-02-28T04:00:21;-3.00;99.90
34099;DHT22;20374;49.474;10.944;2023-02-28T04:02:50;-3.00;99.90
34099;DHT22;20374;49.474;10.944;2023-02-28T04:05:19;-3.00;99.90
34099;DHT22;20374;49.474;10.944;2023-02-28T04:07:45;-3.00;99.90
34099;DHT22;20374;49.474;10.944;2023-02-28T04:10:12;-3.00;99.90
34099;DHT22;20374;49.474;10.944;2023-02-28T04:12:38;-3.00;99.90
34099;DHT22;20374;49.474;10.944;2023-02-28T04:15:04;-3.00;99.90
34099;DHT22;20374;49.474;10.944;2023-02-28T04:17:31;-3.00;99.90
34099;DHT22;20374;49.474;10.944;2023-02-28T04:19:56;-3.10;99.90
34099;DHT22;20374;49.474;10.944;2023-02-28T04:22:23;-3.10;99.90
34099;DHT22;20374;49.474;10.944;2023-02-28T04:24:52;-3.20;99.90
34099;DHT22;20374;49.474;10.944;2023-02-28T04:27:21;-3.10;99.90
34099;DHT22;20374;49.474;10.944;2023-02-28T04:29:47;-3.10;99.90
34099;DHT22;20374;49.474;10.944;2023-02-28T04:32:13;-3.10;99.90
34099;DHT22;20374;49.474;10.944;2023-02-28T04:34:39;-3.10;99.90
34099;DHT22;20374;49.474;10.944;2023-02-28T04:37:05;-3.10;99.90
34099;DHT22;20374;49.474;10.944;2023-02-28T04:39:35;-3.20;99.90
34099;DHT22;20374;49.474;10.944;2023-02-28T04:42:01;-3.10;99.90
34099;DHT22;20374;49.474;10.944;2023-02-28T04:44:27;-3.10;99.90
34099;DHT22;20374;49.474;10.944;2023-02-28T04:46:53;-3.20;99.90
34099;DHT22;20374;49.474;10.944;2023-02-28T04:49:19;-3.20;99.90
34099;DHT22;20374;49.474;10.944;2023-02-28T04:51:45;-3.20;99.90
34099;DHT22;20374;49.474;10.944;2023-02-28T04:54:11;-3.30;99.90
34099;DHT22;20374;49.474;10.944;2023-02-28T04:56:38;-3.30;99.90
34099;DHT22;20374;49.474;10.944;2023-02-28T04:59:04;-3.30;99.90
34099;DHT22;20374;49.474;10.944;2023-02-28T05:01:32;-3.30;99.90
34099;DHT22;20374;49.474;10.944;2023-02-28T05:04:00;-3.40;99.90
34099;DHT22;20374;49.474;10.944;2023-02-28T05:06:30;-3.30;99.90
34099;DHT22;20374;49.474;10.944;2023-02-28T05:08:56;-3.40;99.90
34099;DHT22;20374;49.474;10.944;2023-02-28T05:11:25;-3.30;99.90
34099;DHT22;20374;49.474;10.944;2023-02-28T05:13:52;-3.30;99.90
34099;DHT22;20374;49.474;10.944;2023-02-28T05:16:19;-3.30;99.90
34099;DHT22;20374;49.474;10.944;2023-02-28T05:18:45;-3.30;99.90
34099;DHT22;20374;49.474;10.944;2023-02-28T05:23:52;-3.30;99.90
34099;DHT22;20374;49.474;10.944;2023-02-28T05:26:19;-3.40;99.90
34099;DHT22;20374;49.474;10.944;2023-02-28T05:28:45;-3.40;99.90
34099;DHT22;20374;49.474;10.944;2023-02-28T05:31:11;-3.40;99.90
34099;DHT22;20374;49.474;10.944;2023-02-28T05:33:37;-3.40;99.90
34099;DHT22;20374;49.474;10.944;2023-02-28T05:36:03;-3.40;99.90
34099;DHT22;20374;49.474;10.944;2023-02-28T05:38:29;-3.40;99.90
34099;DHT22;20374;49.474;10.944;2023-02-28T05:40:55;-3.40;99.90
34099;DHT22;20374;49.474;10.944;2023-02-28T05:43:22;-3.40;99.90
34099;DHT22;20374;49.474;10.944;2023-02-28T05:45:48;-3.40;99.90
34099;DHT22;20374;49.474;10.944;2023-02-28T05:48:14;-3.40;99.90
34099;DHT22;20374;49.474;10.944;2023-02-28T05:50:40;-3.50;99.90
34099;DHT22;20374;49.474;10.944;2023-02-28T05:53:06;-3.50;99.90
34099;DHT22;20374;49.474;10.944;2023-02-28T05:55:32;-3.50;99.90
34099;DHT22;20374;49.474;10.944;2023-02-28T05:57:58;-3.50;99.90
34099;DHT22;20374;49.474;10.944;2023-02-28T06:00:24;-3.50;99.90
34099;DHT22;20374;49.474;10.944;2023-02-28T06:02:50;-3.50;99.90
34099;DHT22;20374;49.474;10.944;2023-02-28T06:05:17;-3.50;99.90
34099;DHT22;20374;49.474;10.944;2023-02-28T06:07:44;-3.50;99.90
34099;DHT22;20374;49.474;10.944;2023-02-28T06:10:10;-3.40;99.90
34099;DHT22;20374;49.474;10.944;2023-02-28T06:12:37;-3.50;99.90
34099;DHT22;20374;49.474;10.944;2023-02-28T06:15:04;-3.40;99.90
34099;DHT22;20374;49.474;10.944;2023-02-28T06:17:30;-3.40;99.90
34099;DHT22;20374;49.474;10.944;2023-02-28T06:19:56;-3.40;99.90
34099;DHT22;20374;49.474;10.944;2023-02-28T06:22:22;-3.40;99.90
34099;DHT22;20374;49.474;10.944;2023-02-28T06:24:47;-3.30;99.90
34099;DHT22;20374;49.474;10.944;2023-02-28T06:27:13;-3.20;99.90
34099;DHT22;20374;49.474;10.944;2023-02-28T06:29:39;-3.20;99.90
34099;DHT22;20374;49.474;10.944;2023-02-28T06:32:06;-3.20;99.90
34099;DHT22;20374;49.474;10.944;2023-02-28T06:34:32;-3.10;99.90
34099;DHT22;20374;49.474;10.944;2023-02-28T06:37:00;-3.10;99.90
34099;DHT22;20374;49.474;10.944;2023-02-28T06:39:30;-3.00;99.90
34099;DHT22;20374;49.474;10.944;2023-02-28T06:41:56;-2.90;99.90
34099;DHT22;20374;49.474;10.944;2023-02-28T06:44:23;-2.60;99.90
34099;DHT22;20374;49.474;10.944;2023-02-28T06:46:49;-2.10;99.90
34099;DHT22;20374;49.474;10.944;2023-02-28T06:49:16;-1.60;99.90
34099;DHT22;20374;49.474;10.944;2023-02-28T06:51:43;-0.80;99.90
34099;DHT22;20374;49.474;10.944;2023-02-28T06:54:12;0.20;99.90
34099;DHT22;20374;49.474;10.944;2023-02-28T06:56:38;1.00;99.90
34099;DHT22;20374;49.474;10.944;2023-02-28T06:59:04;1.50;99.90
34099;DHT22;20374;49.474;10.944;2023-02-28T07:01:31;2.20;99.90
34099;DHT22;20374;49.474;10.944;2023-02-28T07:04:00;2.90;99.60
34099;DHT22;20374;49.474;10.944;2023-02-28T07:06:27;3.30;97.40
34099;DHT22;20374;49.474;10.944;2023-02-28T07:08:54;3.30;96.60
34099;DHT22;20374;49.474;10.944;2023-02-28T07:11:21;2.70;96.70
34099;DHT22;20374;49.474;10.944;2023-02-28T07:13:49;2.10;97.80
34099;DHT22;20374;49.474;10.944;2023-02-28T07:16:15;1.40;99.70
34099;DHT22;20374;49.474;10.944;2023-02-28T07:18:41;0.90;99.90
34099;DHT22;20374;49.474;10.944;2023-02-28T07:21:09;0.60;99.90
34099;DHT22;20374;49.474;10.944;2023-02-28T07:23:35;0.40;99.90
34099;DHT22;20374;49.474;10.944;2023-02-28T07:26:04;0.60;99.90
34099;DHT22;20374;49.474;10.944;2023-02-28T07:28:30;1.30;99.90
34099;DHT22;20374;49.474;10.944;2023-02-28T07:30:56;2.00;99.90
34099;DHT22;20374;49.474;10.944;2023-02-28T07:33:22;2.30;99.40
34099;DHT22;20374;49.474;10.944;2023-02-28T07:35:49;2.80;98.70
34099;DHT22;20374;49.474;10.944;2023-02-28T07:38:15;3.50;97.20
34099;DHT22;20374;49.474;10.944;2023-02-28T07:40:41;3.80;95.40
34099;DHT22;20374;49.474;10.944;2023-02-28T07:43:07;3.90;94.00
34099;DHT22;20374;49.474;10.944;2023-02-28T07:45:33;3.90;94.10
34099;DHT22;20374;49.474;10.944;2023-02-28T07:48:01;3.90;94.00
34099;DHT22;20374;49.474;10.944;2023-02-28T07:50:27;3.60;93.80
34099;DHT22;20374;49.474;10.944;2023-02-28T07:52:57;3.40;95.00
34099;DHT22;20374;49.474;10.944;2023-02-28T07:55:24;3.40;94.60
34099;DHT22;20374;49.474;10.944;2023-02-28T07:57:49;3.60;94.50
34099;DHT22;20374;49.474;10.944;2023-02-28T08:00:15;3.60;94.20
34099;DHT22;20374;49.474;10.944;2023-02-28T08:02:41;3.80;93.80
34099;DHT22;20374;49.474;10.944;2023-02-28T08:05:08;3.90;93.90
34099;DHT22;20374;49.474;10.944;2023-02-28T08:07:34;4.20;93.40
34099;DHT22;20374;49.474;10.944;2023-02-28T08:10:00;4.30;92.10
34099;DHT22;20374;49.474;10.944;2023-02-28T08:12:26;4.00;92.70
34099;DHT22;20374;49.474;10.944;2023-02-28T08:14:52;4.40;92.20
34099;DHT22;20374;49.474;10.944;2023-02-28T08:17:18;4.40;92.00
34099;DHT22;20374;49.474;10.944;2023-02-28T08:19:47;4.40;91.50
34099;DHT22;20374;49.474;10.944;2023-02-28T08:22:13;4.20;91.20
34099;DHT22;20374;49.474;10.944;2023-02-28T08:24:41;4.00;91.20
34099;DHT22;20374;49.474;10.944;2023-02-28T08:27:08;4.30;91.70
34099;DHT22;20374;49.474;10.944;2023-02-28T08:29:33;5.00;90.20
34099;DHT22;20374;49.474;10.944;2023-02-28T08:32:01;5.20;88.90
34099;DHT22;20374;49.474;10.944;2023-02-28T08:34:27;5.60;85.80
34099;DHT22;20374;49.474;10.944;2023-02-28T08:36:53;5.30;84.90
34099;DHT22;20374;49.474;10.944;2023-02-28T08:39:19;4.90;85.80
34099;DHT22;20374;49.474;10.944;2023-02-28T08:41:45;5.10;87.60
34099;DHT22;20374;49.474;10.944;2023-02-28T08:44:11;5.10;85.00
34099;DHT22;20374;49.474;10.944;2023-02-28T08:46:38;4.40;84.60
34099;DHT22;20374;49.474;10.944;2023-02-28T08:49:04;3.80;88.00
34099;DHT22;20374;49.474;10.944;2023-02-28T08:51:30;3.20;90.70
34099;DHT22;20374;49.474;10.944;2023-02-28T08:53:59;3.00;91.70
34099;DHT22;20374;49.474;10.944;2023-02-28T08:56:26;2.70;92.60
34099;DHT22;20374;49.474;10.944;2023-02-28T08:58:55;2.60;93.20
34099;DHT22;20374;49.474;10.944;2023-02-28T09:01:23;2.70;93.30
34099;DHT22;20374;49.474;10.944;2023-02-28T09:03:50;2.40;93.30
34099;DHT22;20374;49.474;10.944;2023-02-28T09:06:18;2.30;93.60
34099;DHT22;20374;49.474;10.944;2023-02-28T09:08:45;2.10;94.10
34099;DHT22;20374;49.474;10.944;2023-02-28T09:11:11;2.10;94.30
34099;DHT22;20374;49.474;10.944;2023-02-28T09:13:38;2.00;94.60
34099;DHT22;20374;49.474;10.944;2023-02-28T09:16:06;2.10;94.80
34099;DHT22;20374;49.474;10.944;2023-02-28T09:18:34;2.10;95.00
34099;DHT22;20374;49.474;10.944;2023-02-28T09:21:07;2.10;95.10
34099;DHT22;20374;49.474;10.944;2023-02-28T09:23:34;2.20;94.30
34099;DHT22;20374;49.474;10.944;2023-02-28T09:26:00;2.20;94.30
34099;DHT22;20374;49.474;10.944;2023-02-28T09:28:26;2.10;93.90
34099;DHT22;20374;49.474;10.944;2023-02-28T09:30:54;2.00;94.00
34099;DHT22;20374;49.474;10.944;2023-02-28T09:33:21;1.90;94.20
34099;DHT22;20374;49.474;10.944;2023-02-28T09:35:48;1.90;94.50
34099;DHT22;20374;49.474;10.944;2023-02-28T09:38:15;1.90;94.70
34099;DHT22;20374;49.474;10.944;2023-02-28T09:40:51;1.90;94.70
34099;DHT22;20374;49.474;10.944;2023-02-28T09:43:21;1.90;95.10
34099;DHT22;20374;49.474;10.944;2023-02-28T09:45:55;2.00;95.00
34099;DHT22;20374;49.474;10.944;2023-02-28T09:48:32;1.90;95.00
34099;DHT22;20374;49.474;10.944;2023-02-28T09:54:00;2.20;95.70
34099;DHT22;20374;49.474;10.944;2023-02-28T09:56:41;2.40;94.70
34099;DHT22;20374;49.474;10.944;2023-02-28T09:59:20;2.60;95.00
34099;DHT22;20374;49.474;10.944;2023-02-28T10:02:34;2.60;93.80
34099;DHT22;20374;49.474;10.944;2023-02-28T10:04:56;2.70;92.70
34099;DHT22;20374;49.474;10.944;2023-02-28T10:09:53;2.70;92.00
34099;DHT22;20374;49.474;10.944;2023-02-28T10:12:21;2.80;92.00
34099;DHT22;20374;49.474;10.944;2023-02-28T10:14:50;2.90;92.00
34099;DHT22;20374;49.474;10.944;2023-02-28T10:17:20;2.80;91.90
34099;DHT22;20374;49.474;10.944;2023-02-28T10:20:02;2.80;91.50
34099;DHT22;20374;49.474;10.944;2023-02-28T10:25:21;2.80;92.00
34099;DHT22;20374;49.474;10.944;2023-02-28T10:27:48;2.90;91.70
34099;DHT22;20374;49.474;10.944;2023-02-28T10:30:14;2.90;91.70
34099;DHT22;20374;49.474;10.944;2023-02-28T10:32:47;3.00;91.50
34099;DHT22;20374;49.474;10.944;2023-02-28T10:35:18;3.10;91.50
34099;DHT22;20374;49.474;10.944;2023-02-28T10:37:48;3.30;91.50
34099;DHT22;20374;49.474;10.944;2023-02-28T10:43:05;3.30;90.20
34099;DHT22;20374;49.474;10.944;2023-02-28T10:45:33;3.40;90.10
34099;DHT22;20374;49.474;10.944;2023-02-28T10:59:05;3.90;86.90
34099;DHT22;20374;49.474;10.944;2023-02-28T11:01:47;4.60;85.50
34099;DHT22;20374;49.474;10.944;2023-02-28T11:07:02;6.60;76.60
34099;DHT22;20374;49.474;10.944;2023-02-28T11:09:34;6.90;73.10
34099;DHT22;20374;49.474;10.944;2023-02-28T11:12:02;7.30;73.60
34099;DHT22;20374;49.474;10.944;2023-02-28T11:14:39;7.70;72.70
34099;DHT22;20374;49.474;10.944;2023-02-28T11:17:17;7.50;71.20
34099;DHT22;20374;49.474;10.944;2023-02-28T11:19:48;7.00;72.20
34099;DHT22;20374;49.474;10.944;2023-02-28T11:22:37;6.90;71.30
34099;DHT22;20374;49.474;10.944;2023-02-28T11:25:26;6.70;71.60
34099;DHT22;20374;49.474;10.944;2023-02-28T11:28:01;6.50;72.90
34099;DHT22;20374;49.474;10.944;2023-02-28T11:30:36;6.80;71.90
34099;DHT22;20374;49.474;10.944;2023-02-28T11:33:40;7.20;71.60
34099;DHT22;20374;49.474;10.944;2023-02-28T11:36:16;7.80;68.40
34099;DHT22;20374;49.474;10.944;2023-02-28T11:38:43;7.90;68.00
34099;DHT22;20374;49.474;10.944;2023-02-28T11:41:21;7.90;67.10
34099;DHT22;20374;49.474;10.944;2023-02-28T11:46:50;8.80;63.80
34099;DHT22;20374;49.474;10.944;2023-02-28T11:52:14;9.70;62.10
34099;DHT22;20374;49.474;10.944;2023-02-28T12:05:31;7.00;65.90
34099;DHT22;20374;49.474;10.944;2023-02-28T12:08:07;6.90;68.50
34099;DHT22;20374;49.474;10.944;2023-02-28T12:10:51;7.10;66.70
34099;DHT22;20374;49.474;10.944;2023-02-28T12:13:26;7.10;69.00
34099;DHT22;20374;49.474;10.944;2023-02-28T12:23:57;9.10;64.40
34099;DHT22;20374;49.474;10.944;2023-02-28T12:29:24;10.20;58.80
34099;DHT22;20374;49.474;10.944;2023-02-28T12:34:56;10.60;58.30
34099;DHT22;20374;49.474;10.944;2023-02-28T12:37:31;10.60;58.30
34099;DHT22;20374;49.474;10.944;2023-02-28T12:40:08;10.40;57.10
34099;DHT22;20374;49.474;10.944;2023-02-28T12:43:02;10.20;58.10
34099;DHT22;20374;49.474;10.944;2023-02-28T12:48:31;11.30;56.00
34099;DHT22;20374;49.474;10.944;2023-02-28T12:51:02;11.90;55.70
34099;DHT22;20374;49.474;10.944;2023-02-28T12:58:48;13.30;53.70
34099;DHT22;20374;49.474;10.944;2023-02-28T13:10:18;12.40;52.40
34099;DHT22;20374;49.474;10.944;2023-02-28T13:12:49;12.60;51.90
34099;DHT22;20374;49.474;10.944;2023-02-28T13:15:25;12.80;51.30
34099;DHT22;20374;49.474;10.944;2023-02-28T13:17:58;13.00;52.20
34099;DHT22;20374;49.474;10.944;2023-02-28T13:22:58;13.80;50.80
34099;DHT22;20374;49.474;10.944;2023-02-28T13:28:13;13.60;50.30
34099;DHT22;20374;49.474;10.944;2023-02-28T13:33:30;12.80;50.80
34099;DHT22;20374;49.474;10.944;2023-02-28T13:36:22;12.80;50.20
34099;DHT22;20374;49.474;10.944;2023-02-28T13:38:54;12.80;51.20
34099;DHT22;20374;49.474;10.944;2023-02-28T13:44:18;12.90;51.60
34099;DHT22;20374;49.474;10.944;2023-02-28T13:57:56;12.40;51.30
34099;DHT22;20374;49.474;10.944;2023-02-28T14:00:48;12.40;51.20
34099;DHT22;20374;49.474;10.944;2023-02-28T14:06:17;12.80;50.60
34099;DHT22;20374;49.474;10.944;2023-02-28T14:11:36;12.80;50.20
34099;DHT22;20374;49.474;10.944;2023-02-28T14:14:04;12.60;51.40
34099;DHT22;20374;49.474;10.944;2023-02-28T14:16:45;12.70;51.80
34099;DHT22;20374;49.474;10.944;2023-02-28T14:19:25;12.90;51.00
34099;DHT22;20374;49.474;10.944;2023-02-28T14:22:09;12.40;51.00
34099;DHT22;20374;49.474;10.944;2023-02-28T14:38:20;12.10;52.10
34099;DHT22;20374;49.474;10.944;2023-02-28T14:40:50;11.90;51.60
34099;DHT22;20374;49.474;10.944;2023-02-28T14:43:25;11.90;51.70
34099;DHT22;20374;49.474;10.944;2023-02-28T14:45:54;11.80;51.60
34099;DHT22;20374;49.474;10.944;2023-02-28T14:48:21;11.90;51.80
34099;DHT22;20374;49.474;10.944;2023-02-28T14:50:59;11.40;52.40
34099;DHT22;20374;49.474;10.944;2023-02-28T14:53:34;11.00;51.80
34099;DHT22;20374;49.474;10.944;2023-02-28T14:56:00;10.80;52.90
34099;DHT22;20374;49.474;10.944;2023-02-28T14:58:33;10.60;52.80
34099;DHT22;20374;49.474;10.944;2023-02-28T15:01:01;10.30;53.40
34099;DHT22;20374;49.474;10.944;2023-02-28T15:06:03;10.40;53.90
34099;DHT22;20374;49.474;10.944;2023-02-28T15:08:34;10.40;53.30
34099;DHT22;20374;49.474;10.944;2023-02-28T15:11:16;10.00;52.70
34099;DHT22;20374;49.474;10.944;2023-02-28T15:13:48;9.90;54.10
34099;DHT22;20374;49.474;10.944;2023-02-28T15:16:24;9.50;55.00
34099;DHT22;20374;49.474;10.944;2023-02-28T15:19:05;9.50;55.20
34099;DHT22;20374;49.474;10.944;2023-02-28T15:21:38;9.20;56.20
34099;DHT22;20374;49.474;10.944;2023-02-28T15:24:30;9.00;55.70
34099;DHT22;20374;49.474;10.944;2023-02-28T15:26:56;8.80;56.90
34099;DHT22;20374;49.474;10.944;2023-02-28T15:29:24;8.70;56.60
34099;DHT22;20374;49.474;10.944;2023-02-28T15:32:03;8.50;56.10
34099;DHT22;20374;49.474;10.944;2023-02-28T15:34:37;8.00;56.80
34099;DHT22;20374;49.474;10.944;2023-02-28T15:39:53;7.30;58.50
34099;DHT22;20374;49.474;10.944;2023-02-28T15:42:22;7.00;59.10
34099;DHT22;20374;49.474;10.944;2023-02-28T15:44:49;6.80;59.70
34099;DHT22;20374;49.474;10.944;2023-02-28T15:47:22;6.40;60.10
34099;DHT22;20374;49.474;10.944;2023-02-28T15:50:00;6.30;61.80
34099;DHT22;20374;49.474;10.944;2023-02-28T15:52:42;6.00;61.90
34099;DHT22;20374;49.474;10.944;2023-02-28T15:55:22;5.90;62.70
34099;DHT22;20374;49.474;10.944;2023-02-28T15:57:52;5.70;62.80
34099;DHT22;20374;49.474;10.944;2023-02-28T16:00:21;5.60;63.80
34099;DHT22;20374;49.474;10.944;2023-02-28T16:02:47;5.40;64.80
34099;DHT22;20374;49.474;10.944;2023-02-28T16:07:46;5.20;65.50
34099;DHT22;20374;49.474;10.944;2023-02-28T16:10:14;5.10;66.10
34099;DHT22;20374;49.474;10.944;2023-02-28T16:12:40;4.90;67.50
34099;DHT22;20374;49.474;10.944;2023-02-28T16:15:19;4.80;67.30
34099;DHT22;20374;49.474;10.944;2023-02-28T16:17:46;4.60;68.70
34099;DHT22;20374;49.474;10.944;2023-02-28T16:20:14;4.50;69.60
34099;DHT22;20374;49.474;10.944;2023-02-28T16:22:40;4.40;70.10
34099;DHT22;20374;49.474;10.944;2023-02-28T16:25:15;4.30;70.70
34099;DHT22;20374;49.474;10.944;2023-02-28T16:27:42;4.20;71.30
34099;DHT22;20374;49.474;10.944;2023-02-28T16:30:21;4.20;71.80
34099;DHT22;20374;49.474;10.944;2023-02-28T16:32:49;4.10;72.80
34099;DHT22;20374;49.474;10.944;2023-02-28T16:35:15;4.20;73.30
34099;DHT22;20374;49.474;10.944;2023-02-28T16:37:41;4.00;73.60
34099;DHT22;20374;49.474;10.944;2023-02-28T16:40:16;4.00;73.70
34099;DHT22;20374;49.474;10.944;2023-02-28T16:42:44;3.90;74.50
34099;DHT22;20374;49.474;10.944;2023-02-28T16:45:26;3.80;75.10
34099;DHT22;20374;49.474;10.944;2023-02-28T16:47:52;3.80;76.80
34099;DHT22;20374;49.474;10.944;2023-02-28T16:50:23;3.70;77.10
34099;DHT22;20374;49.474;10.944;2023-02-28T16:52:50;3.60;79.70
34099;DHT22;20374;49.474;10.944;2023-02-28T16:55:18;3.60;79.30
34099;DHT22;20374;49.474;10.944;2023-02-28T16:57:48;3.50;78.30
34099;DHT22;20374;49.474;10.944;2023-02-28T17:00:16;3.50;80.20
34099;DHT22;20374;49.474;10.944;2023-02-28T17:02:42;3.50;79.70
34099;DHT22;20374;49.474;10.944;2023-02-28T17:05:10;3.40;80.60
34099;DHT22;20374;49.474;10.944;2023-02-28T17:07:36;3.40;80.70
34099;DHT22;20374;49.474;10.944;2023-02-28T17:10:20;3.40;80.20
34099;DHT22;20374;49.474;10.944;2023-02-28T17:12:46;3.40;81.50
34099;DHT22;20374;49.474;10.944;2023-02-28T17:15:14;3.40;80.40
34099;DHT22;20374;49.474;10.944;2023-02-28T17:17:41;3.40;81.10
34099;DHT22;20374;49.474;10.944;2023-02-28T17:20:12;3.30;82.30
34099;DHT22;20374;49.474;10.944;2023-02-28T17:22:38;3.20;82.70
34099;DHT22;20374;49.474;10.944;2023-02-28T17:25:04;3.10;82.80
34099;DHT22;20374;49.474;10.944;2023-02-28T17:27:31;3.10;84.10
34099;DHT22;20374;49.474;10.944;2023-02-28T17:29:58;3.10;83.40
34099;DHT22;20374;49.474;10.944;2023-02-28T17:32:26;3.00;85.30
34099;DHT22;20374;49.474;10.944;2023-02-28T17:34:53;2.90;84.70
34099;DHT22;20374;49.474;10.944;2023-02-28T17:37:19;2.90;85.70
34099;DHT22;20374;49.474;10.944;2023-02-28T17:39:45;2.80;85.20
34099;DHT22;20374;49.474;10.944;2023-02-28T17:42:11;2.70;86.30
34099;DHT22;20374;49.474;10.944;2023-02-28T17:44:37;2.70;87.50
34099;DHT22;20374;49.474;10.944;2023-02-28T17:47:03;2.60;87.30
34099;DHT22;20374;49.474;10.944;2023-02-28T17:49:29;2.60;87.80
34099;DHT22;20374;49.474;10.944;2023-02-28T17:51:55;2.50;88.60
34099;DHT22;20374;49.474;10.944;2023-02-28T17:54:21;2.40;88.90
34099;DHT22;20374;49.474;10.944;2023-02-28T17:56:47;2.50;90.40
34099;DHT22;20374;49.474;10.944;2023-02-28T17:59:13;2.40;90.50
34099;DHT22;20374;49.474;10.944;2023-02-28T18:01:39;2.30;90.70
34099;DHT22;20374;49.474;10.944;2023-02-28T18:04:05;2.30;90.90
34099;DHT22;20374;49.474;10.944;2023-02-28T18:06:41;2.20;91.30
34099;DHT22;20374;49.474;10.944;2023-02-28T18:09:20;2.10;91.60
34099;DHT22;20374;49.474;10.944;2023-02-28T18:11:50;2.00;92.10
34099;DHT22;20374;49.474;10.944;2023-02-28T18:14:18;1.80;92.70
34099;DHT22;20374;49.474;10.944;2023-02-28T18:16:45;1.80;93.00
34099;DHT22;20374;49.474;10.944;2023-02-28T18:19:12;1.70;93.20
34099;DHT22;20374;49.474;10.944;2023-02-28T18:21:46;1.70;94.20
34099;DHT22;20374;49.474;10.944;2023-02-28T18:24:13;1.70;94.10
34099;DHT22;20374;49.474;10.944;2023-02-28T18:26:40;1.70;94.50